Aérodrome :
LOGIN :

S'inscrire | Disclaimer

   EN    FR    IT 

 










Légende :    VFR   VFR Marginal   IFR   IFR Intensif   IFR Très Intensif
Visi : 
Plafond : 
>= 8 km
>= 3000ft
5 à 8 km
1000 à 3000 ft
1500m à 5 km
500 à 1000 ft
800 à 1500m
200 à 500 ft
< 800m
< 200 ft
Symboles :   Orages  Brouillard  Fortes neiges  Fortes précipitations  Vent > 20 kt
SIGMETs :   Divers  Orages  Givrage  Turbulence  Onde Orograph.  Cendres Volcan.






- Altitude de l'aérodrome : -13 ft
- Code IATA : LEY


EHLE - Lelystad

DERNIER METAR :
  • 130855Z AUTO 25016KT 230V290 9999 SCT013 SCT017 BKN021 16/14 Q1009 TEMPO 6000 -RADZ BKN014

METARs EXPIRÉS :
  • 130825Z AUTO 25011KT 220V290 9999 FEW010/// BKN013/// BKN018/// 16/14 Q1009 TEMPO 6000 -RADZ
  • 130755Z AUTO 25011KT 9999 FEW009/// SCT011/// BKN014/// 16/14 Q1009 TEMPO 6000 -RADZ
  • 130725Z AUTO 24008KT 210V280 9999 FEW010/// SCT030/// BKN035/// 15/14 Q1009 RERA TEMPO 6000 -RADZ BKN012
  • 130655Z AUTO 24010KT 9999 FEW008 SCT020 OVC029 15/14 Q1009 TEMPO 6000 -RADZ BKN012
  • 130625Z AUTO 23010KT 200V260 9999 FEW008/// BKN009/// BKN011/// 15/14 Q1009 TEMPO 6000 -RADZ
  • 130555Z AUTO 22008KT 9999 FEW007 SCT008 BKN010 15/14 Q1008 TEMPO 6000 -RADZ
  • 130525Z AUTO 22009KT 9999 FEW008 SCT010 BKN013 15/14 Q1008
  • 130455Z AUTO 22008KT 9999 FEW009 SCT018 BKN024 15/14 Q1008
  • 130425Z AUTO 22007KT 9999 FEW008 SCT010 BKN029 15/14 Q1008

TAF TAF EHLE
Valide du 13 à 06h jusqu'au 14 à 12h UTC


130436Z 1306/1412 22007KT 9999 SCT011 BKN017
BECMG 1306/1309 25017KT
PROB40
TEMPO 1306/1315 7000 SHRA BKN011 SCT018CB
PROB30
TEMPO 1306/1308 BKN008
PROB40
TEMPO 1315/1319 6000 RADZ -SHRA BKN008 FEW018TCU
BECMG 1318/1321 21010KT



MET'MAP, la Météo Aéronautique d'un coup d'oeil ! - Copyright ORBIFLY Décembre 2007 - Disclaimer

ORBIFLY MET'MAP TEAM :

Programmation & Développement : Alexandra Zaïnal
Sur une idée originale de : Baudouin d'Aumeries
Soutien technique & logistique : Manuel Goepfert
Assistance : Marc-Olivier Méhu




SOURCES & CREDITS :

   NOAA